sensor_id;sensor_type;location;lat;lon;timestamp;pressure;altitude;pressure_sealevel;temperature;humidity
66524;BME280;53350;52.210;5.160;2023-12-20T00:00:12;101601.16;;;9.19;78.89
66524;BME280;53350;52.210;5.160;2023-12-20T00:02:39;101608.00;;;9.20;78.56
66524;BME280;53350;52.210;5.160;2023-12-20T00:05:06;101598.56;;;9.18;78.57
66524;BME280;53350;52.210;5.160;2023-12-20T00:07:32;101597.72;;;9.19;78.59
66524;BME280;53350;52.210;5.160;2023-12-20T00:09:59;101601.13;;;9.16;78.60
66524;BME280;53350;52.210;5.160;2023-12-20T00:12:25;101597.69;;;9.11;78.77
66524;BME280;53350;52.210;5.160;2023-12-20T00:14:53;101599.38;;;9.09;78.42
66524;BME280;53350;52.210;5.160;2023-12-20T00:17:19;101589.09;;;9.08;78.85
66524;BME280;53350;52.210;5.160;2023-12-20T00:19:46;101588.22;;;9.05;78.80
66524;BME280;53350;52.210;5.160;2023-12-20T00:22:12;101582.19;;;9.03;78.81
66524;BME280;53350;52.210;5.160;2023-12-20T00:24:39;101578.78;;;9.03;78.77
66524;BME280;53350;52.210;5.160;2023-12-20T00:27:05;101594.22;;;9.06;78.98
66524;BME280;53350;52.210;5.160;2023-12-20T00:29:31;101595.09;;;9.08;79.04
66524;BME280;53350;52.210;5.160;2023-12-20T00:31:59;101593.38;;;9.09;78.79
66524;BME280;53350;52.210;5.160;2023-12-20T00:34:25;101590.81;;;9.09;78.43
66524;BME280;53350;52.210;5.160;2023-12-20T00:36:52;101596.78;;;9.08;78.16
66524;BME280;53350;52.210;5.160;2023-12-20T00:39:20;101588.25;;;9.07;77.99
66524;BME280;53350;52.210;5.160;2023-12-20T00:41:46;101589.94;;;9.07;78.06
66524;BME280;53350;52.210;5.160;2023-12-20T00:44:12;101583.94;;;9.04;78.15
66524;BME280;53350;52.210;5.160;2023-12-20T00:46:39;101586.50;;;9.01;78.17
66524;BME280;53350;52.210;5.160;2023-12-20T00:49:07;101587.31;;;9.00;78.14
66524;BME280;53350;52.210;5.160;2023-12-20T00:51:33;101582.19;;;9.02;78.07
66524;BME280;53350;52.210;5.160;2023-12-20T00:54:00;101588.22;;;9.02;77.89
66524;BME280;53350;52.210;5.160;2023-12-20T00:56:26;101588.22;;;9.01;78.28
66524;BME280;53350;52.210;5.160;2023-12-20T00:58:53;101579.63;;;9.00;78.01
66524;BME280;53350;52.210;5.160;2023-12-20T01:01:19;101576.19;;;8.97;78.25
66524;BME280;53350;52.210;5.160;2023-12-20T01:03:45;101571.03;;;8.95;78.71
66524;BME280;53350;52.210;5.160;2023-12-20T01:06:13;101566.75;;;8.96;78.54
66524;BME280;53350;52.210;5.160;2023-12-20T01:08:40;101567.59;;;8.98;78.29
66524;BME280;53350;52.210;5.160;2023-12-20T01:11:07;101576.19;;;8.98;78.30
66524;BME280;53350;52.210;5.160;2023-12-20T01:13:33;101577.91;;;8.99;77.95
66524;BME280;53350;52.210;5.160;2023-12-20T01:16:00;101582.19;;;8.99;78.06
66524;BME280;53350;52.210;5.160;2023-12-20T01:18:26;101602.72;;;8.96;78.39
66524;BME280;53350;52.210;5.160;2023-12-20T01:20:53;101597.59;;;8.97;78.58
66524;BME280;53350;52.210;5.160;2023-12-20T01:23:20;101589.88;;;8.96;78.89
66524;BME280;53350;52.210;5.160;2023-12-20T01:25:48;101586.47;;;8.95;78.82
66524;BME280;53350;52.210;5.160;2023-12-20T01:28:14;101591.59;;;8.97;78.97
66524;BME280;53350;52.210;5.160;2023-12-20T01:30:40;101588.16;;;8.98;78.76
66524;BME280;53350;52.210;5.160;2023-12-20T01:33:07;101586.47;;;9.00;78.67
66524;BME280;53350;52.210;5.160;2023-12-20T01:35:33;101578.78;;;9.03;78.64
66524;BME280;53350;52.210;5.160;2023-12-20T01:38:00;101574.50;;;9.05;78.35
66524;BME280;53350;52.210;5.160;2023-12-20T01:40:27;101579.63;;;8.99;78.34
66524;BME280;53350;52.210;5.160;2023-12-20T01:43:00;101575.34;;;8.99;78.58
66524;BME280;53350;52.210;5.160;2023-12-20T01:45:26;101572.75;;;8.98;79.07
66524;BME280;53350;52.210;5.160;2023-12-20T01:47:53;101571.06;;;9.00;78.80
66524;BME280;53350;52.210;5.160;2023-12-20T01:50:20;101571.91;;;9.00;78.74
66524;BME280;53350;52.210;5.160;2023-12-20T01:52:47;101571.06;;;9.01;78.90
66524;BME280;53350;52.210;5.160;2023-12-20T01:55:17;101570.22;;;9.02;78.91
66524;BME280;53350;52.210;5.160;2023-12-20T01:57:46;101574.50;;;9.03;78.99
66524;BME280;53350;52.210;5.160;2023-12-20T02:00:14;101574.50;;;9.05;78.97
66524;BME280;53350;52.210;5.160;2023-12-20T02:02:41;101569.38;;;9.07;79.08
66524;BME280;53350;52.210;5.160;2023-12-20T02:05:08;101570.25;;;9.09;79.47
66524;BME280;53350;52.210;5.160;2023-12-20T02:07:34;101577.97;;;9.13;78.67
66524;BME280;53350;52.210;5.160;2023-12-20T02:10:01;101566.88;;;9.16;78.82
66524;BME280;53350;52.210;5.160;2023-12-20T02:12:27;101572.00;;;9.17;78.86
66524;BME280;53350;52.210;5.160;2023-12-20T02:14:55;101571.19;;;9.20;78.33
66524;BME280;53350;52.210;5.160;2023-12-20T02:17:22;101567.72;;;9.21;78.05
66524;BME280;53350;52.210;5.160;2023-12-20T02:19:49;101568.59;;;9.20;78.07
66524;BME280;53350;52.210;5.160;2023-12-20T02:22:17;101559.16;;;9.20;77.79
66524;BME280;53350;52.210;5.160;2023-12-20T02:24:43;101558.34;;;9.21;77.89
66524;BME280;53350;52.210;5.160;2023-12-20T02:27:10;101561.75;;;9.20;78.13
66524;BME280;53350;52.210;5.160;2023-12-20T02:29:37;101562.59;;;9.19;78.34
66524;BME280;53350;52.210;5.160;2023-12-20T02:32:04;101557.44;;;9.19;78.23
66524;BME280;53350;52.210;5.160;2023-12-20T02:34:31;101554.03;;;9.22;78.51
66524;BME280;53350;52.210;5.160;2023-12-20T02:36:58;101548.91;;;9.23;78.43
66524;BME280;53350;52.210;5.160;2023-12-20T02:39:26;101550.63;;;9.26;78.47
66524;BME280;53350;52.210;5.160;2023-12-20T02:41:52;101551.50;;;9.28;78.08
66524;BME280;53350;52.210;5.160;2023-12-20T02:44:18;101553.22;;;9.29;78.27
66524;BME280;53350;52.210;5.160;2023-12-20T02:46:45;101545.50;;;9.28;77.75
66524;BME280;53350;52.210;5.160;2023-12-20T02:49:11;101550.63;;;9.28;77.95
66524;BME280;53350;52.210;5.160;2023-12-20T02:51:38;101546.34;;;9.30;77.77
66524;BME280;53350;52.210;5.160;2023-12-20T02:54:04;101544.66;;;9.30;77.65
66524;BME280;53350;52.210;5.160;2023-12-20T02:56:32;101553.22;;;9.31;77.60
66524;BME280;53350;52.210;5.160;2023-12-20T02:58:59;101540.38;;;9.32;77.65
66524;BME280;53350;52.210;5.160;2023-12-20T03:01:25;101530.94;;;9.30;77.95
66524;BME280;53350;52.210;5.160;2023-12-20T03:03:52;101524.94;;;9.32;77.16
66524;BME280;53350;52.210;5.160;2023-12-20T03:06:18;101518.97;;;9.35;77.40
66524;BME280;53350;52.210;5.160;2023-12-20T03:08:45;101525.78;;;9.30;77.47
66524;BME280;53350;52.210;5.160;2023-12-20T03:11:12;101524.94;;;9.28;77.25
66524;BME280;53350;52.210;5.160;2023-12-20T03:13:40;101531.78;;;9.26;77.47
66524;BME280;53350;52.210;5.160;2023-12-20T03:16:08;101518.06;;;9.30;76.90
66524;BME280;53350;52.210;5.160;2023-12-20T03:18:34;101527.50;;;9.29;77.28
66524;BME280;53350;52.210;5.160;2023-12-20T03:21:01;101503.53;;;9.32;76.72
66524;BME280;53350;52.210;5.160;2023-12-20T03:23:27;101510.41;;;9.33;76.63
66524;BME280;53350;52.210;5.160;2023-12-20T03:25:53;101512.09;;;9.34;76.55
66524;BME280;53350;52.210;5.160;2023-12-20T03:28:20;101508.69;;;9.36;76.43
66524;BME280;53350;52.210;5.160;2023-12-20T03:30:48;101517.25;;;9.37;76.76
66524;BME280;53350;52.210;5.160;2023-12-20T03:33:14;101509.53;;;9.35;76.49
66524;BME280;53350;52.210;5.160;2023-12-20T03:35:41;101509.53;;;9.37;76.44
66524;BME280;53350;52.210;5.160;2023-12-20T03:38:07;101501.81;;;9.37;76.57
66524;BME280;53350;52.210;5.160;2023-12-20T03:40:34;101517.28;;;9.42;76.36
66524;BME280;53350;52.210;5.160;2023-12-20T03:43:00;101518.13;;;9.37;76.42
66524;BME280;53350;52.210;5.160;2023-12-20T03:45:27;101518.97;;;9.35;76.35
66524;BME280;53350;52.210;5.160;2023-12-20T03:47:54;101517.28;;;9.38;76.54
66524;BME280;53350;52.210;5.160;2023-12-20T03:50:21;101529.25;;;9.39;75.99
66524;BME280;53350;52.210;5.160;2023-12-20T03:52:48;101525.00;;;9.38;76.31
66524;BME280;53350;52.210;5.160;2023-12-20T03:55:15;101530.13;;;9.40;76.26
66524;BME280;53350;52.210;5.160;2023-12-20T03:57:41;101538.69;;;9.39;76.37
66524;BME280;53350;52.210;5.160;2023-12-20T04:00:08;101536.13;;;9.40;76.52
66524;BME280;53350;52.210;5.160;2023-12-20T04:02:35;101530.13;;;9.42;75.84
66524;BME280;53350;52.210;5.160;2023-12-20T04:05:04;101530.13;;;9.40;75.76
66524;BME280;53350;52.210;5.160;2023-12-20T04:07:30;101525.00;;;9.43;75.86
66524;BME280;53350;52.210;5.160;2023-12-20T04:09:56;101518.97;;;9.43;75.38
66524;BME280;53350;52.210;5.160;2023-12-20T04:12:23;101518.97;;;9.43;75.81
66524;BME280;53350;52.210;5.160;2023-12-20T04:14:49;101514.72;;;9.42;75.74
66524;BME280;53350;52.210;5.160;2023-12-20T04:17:16;101511.28;;;9.44;75.92
66524;BME280;53350;52.210;5.160;2023-12-20T04:19:42;101511.28;;;9.46;76.05
66524;BME280;53350;52.210;5.160;2023-12-20T04:22:10;101515.56;;;9.50;75.98
66524;BME280;53350;52.210;5.160;2023-12-20T04:24:37;101515.59;;;9.53;75.72
66524;BME280;53350;52.210;5.160;2023-12-20T04:27:03;101504.44;;;9.51;76.06
66524;BME280;53350;52.210;5.160;2023-12-20T04:29:30;101487.31;;;9.57;75.56
66524;BME280;53350;52.210;5.160;2023-12-20T04:31:56;101484.72;;;9.42;76.07
66524;BME280;53350;52.210;5.160;2023-12-20T04:34:23;101494.16;;;9.55;75.67
66524;BME280;53350;52.210;5.160;2023-12-20T04:36:50;101497.56;;;9.53;75.62
66524;BME280;53350;52.210;5.160;2023-12-20T04:39:18;101501.88;;;9.51;75.63
66524;BME280;53350;52.210;5.160;2023-12-20T04:41:44;101497.63;;;9.54;75.36
66524;BME280;53350;52.210;5.160;2023-12-20T04:44:13;101500.16;;;9.53;75.53
66524;BME280;53350;52.210;5.160;2023-12-20T04:46:39;101507.91;;;9.54;75.70
66524;BME280;53350;52.210;5.160;2023-12-20T04:49:06;101500.19;;;9.56;75.98
66524;BME280;53350;52.210;5.160;2023-12-20T04:51:33;101500.16;;;9.53;76.10
66524;BME280;53350;52.210;5.160;2023-12-20T04:54:00;101496.72;;;9.55;76.21
66524;BME280;53350;52.210;5.160;2023-12-20T04:56:27;101488.19;;;9.60;75.88
66524;BME280;53350;52.210;5.160;2023-12-20T04:58:56;101487.31;;;9.57;76.28
66524;BME280;53350;52.210;5.160;2023-12-20T05:01:22;101482.19;;;9.64;75.85
66524;BME280;53350;52.210;5.160;2023-12-20T05:03:49;101488.19;;;9.64;75.82
66524;BME280;53350;52.210;5.160;2023-12-20T05:06:15;101488.19;;;9.66;75.56
66524;BME280;53350;52.210;5.160;2023-12-20T05:08:42;101492.47;;;9.67;75.53
66524;BME280;53350;52.210;5.160;2023-12-20T05:11:08;101488.22;;;9.70;75.58
66524;BME280;53350;52.210;5.160;2023-12-20T05:13:36;101495.06;;;9.68;75.34
66524;BME280;53350;52.210;5.160;2023-12-20T05:16:03;101495.91;;;9.67;75.05
66524;BME280;53350;52.210;5.160;2023-12-20T05:18:29;101494.19;;;9.65;75.19
66524;BME280;53350;52.210;5.160;2023-12-20T05:20:55;101504.50;;;9.65;75.52
66524;BME280;53350;52.210;5.160;2023-12-20T05:23:22;101495.91;;;9.64;75.49
66524;BME280;53350;52.210;5.160;2023-12-20T05:25:48;101507.06;;;9.63;75.69
66524;BME280;53350;52.210;5.160;2023-12-20T05:28:15;101496.78;;;9.65;75.46
66524;BME280;53350;52.210;5.160;2023-12-20T05:30:43;101489.06;;;9.71;74.96
66524;BME280;53350;52.210;5.160;2023-12-20T05:33:09;101487.34;;;9.70;75.09
66524;BME280;53350;52.210;5.160;2023-12-20T05:35:35;101483.91;;;9.68;75.38
66524;BME280;53350;52.210;5.160;2023-12-20T05:38:02;101483.91;;;9.72;75.19
66524;BME280;53350;52.210;5.160;2023-12-20T05:40:29;101485.63;;;9.73;75.02
66524;BME280;53350;52.210;5.160;2023-12-20T05:42:55;101483.91;;;9.72;75.05
66524;BME280;53350;52.210;5.160;2023-12-20T05:45:21;101482.19;;;9.70;75.24
66524;BME280;53350;52.210;5.160;2023-12-20T05:47:48;101483.03;;;9.67;75.31
66524;BME280;53350;52.210;5.160;2023-12-20T05:50:15;101478.78;;;9.68;75.57
66524;BME280;53350;52.210;5.160;2023-12-20T05:52:41;101486.50;;;9.68;75.48
66524;BME280;53350;52.210;5.160;2023-12-20T05:55:08;101486.50;;;9.69;75.64
66524;BME280;53350;52.210;5.160;2023-12-20T05:57:34;101483.91;;;9.74;75.34
66524;BME280;53350;52.210;5.160;2023-12-20T06:00:01;101477.94;;;9.75;75.66
66524;BME280;53350;52.210;5.160;2023-12-20T06:02:28;101482.19;;;9.76;75.39
66524;BME280;53350;52.210;5.160;2023-12-20T06:04:56;101480.50;;;9.77;75.30
66524;BME280;53350;52.210;5.160;2023-12-20T06:07:23;101482.22;;;9.79;75.20
66524;BME280;53350;52.210;5.160;2023-12-20T06:09:49;101479.66;;;9.81;75.06
66524;BME280;53350;52.210;5.160;2023-12-20T06:12:16;101482.22;;;9.79;75.17
66524;BME280;53350;52.210;5.160;2023-12-20T06:14:42;101482.22;;;9.82;75.27
66524;BME280;53350;52.210;5.160;2023-12-20T06:17:09;101477.91;;;9.83;75.42
66524;BME280;53350;52.210;5.160;2023-12-20T06:19:35;101483.91;;;9.82;75.39
66524;BME280;53350;52.210;5.160;2023-12-20T06:22:03;101472.78;;;9.84;75.44
66524;BME280;53350;52.210;5.160;2023-12-20T06:24:29;101468.50;;;9.88;75.28
66524;BME280;53350;52.210;5.160;2023-12-20T06:26:58;101474.50;;;9.87;75.62
66524;BME280;53350;52.210;5.160;2023-12-20T06:29:25;101474.50;;;9.93;75.04
66524;BME280;53350;52.210;5.160;2023-12-20T06:31:51;101476.22;;;9.94;74.91
66524;BME280;53350;52.210;5.160;2023-12-20T06:34:18;101483.06;;;9.90;75.21
66524;BME280;53350;52.210;5.160;2023-12-20T06:36:44;101477.94;;;9.95;75.28
66524;BME280;53350;52.210;5.160;2023-12-20T06:39:12;101479.66;;;9.96;74.81
66524;BME280;53350;52.210;5.160;2023-12-20T06:41:39;101478.78;;;9.92;75.39
66524;BME280;53350;52.210;5.160;2023-12-20T06:44:05;101475.38;;;9.98;75.04
66524;BME280;53350;52.210;5.160;2023-12-20T06:46:32;101469.38;;;10.02;74.85
66524;BME280;53350;52.210;5.160;2023-12-20T06:48:58;101467.66;;;10.03;74.77
66524;BME280;53350;52.210;5.160;2023-12-20T06:51:24;101471.06;;;10.03;74.60
66524;BME280;53350;52.210;5.160;2023-12-20T06:53:51;101459.94;;;10.01;74.77
66524;BME280;53350;52.210;5.160;2023-12-20T06:56:21;101461.63;;;9.99;74.94
66524;BME280;53350;52.210;5.160;2023-12-20T06:58:47;101475.38;;;9.98;74.89
66524;BME280;53350;52.210;5.160;2023-12-20T07:01:14;101465.94;;;9.96;75.01
66524;BME280;53350;52.210;5.160;2023-12-20T07:03:40;101463.34;;;9.97;74.94
66524;BME280;53350;52.210;5.160;2023-12-20T07:06:07;101459.06;;;9.96;75.24
66524;BME280;53350;52.210;5.160;2023-12-20T07:08:34;101465.06;;;10.01;74.95
66524;BME280;53350;52.210;5.160;2023-12-20T07:11:00;101454.78;;;10.01;75.04
66524;BME280;53350;52.210;5.160;2023-12-20T07:13:29;101457.34;;;10.01;75.21
66524;BME280;53350;52.210;5.160;2023-12-20T07:15:56;101461.66;;;10.02;75.12
66524;BME280;53350;52.210;5.160;2023-12-20T07:18:22;101463.34;;;10.03;74.93
66524;BME280;53350;52.210;5.160;2023-12-20T07:20:49;101443.63;;;10.04;74.85
66524;BME280;53350;52.210;5.160;2023-12-20T07:23:15;101444.47;;;10.01;75.02
66524;BME280;53350;52.210;5.160;2023-12-20T07:25:42;101455.63;;;10.00;75.17
66524;BME280;53350;52.210;5.160;2023-12-20T07:28:08;101441.91;;;10.04;75.17
66524;BME280;53350;52.210;5.160;2023-12-20T07:30:36;101429.91;;;9.99;75.30
66524;BME280;53350;52.210;5.160;2023-12-20T07:33:03;101431.63;;;10.01;75.13
66524;BME280;53350;52.210;5.160;2023-12-20T07:35:29;101435.88;;;9.98;75.34
66524;BME280;53350;52.210;5.160;2023-12-20T07:37:56;101444.50;;;9.98;75.60
66524;BME280;53350;52.210;5.160;2023-12-20T07:40:22;101445.31;;;10.03;75.63
66524;BME280;53350;52.210;5.160;2023-12-20T07:42:49;101448.78;;;10.10;75.24
66524;BME280;53350;52.210;5.160;2023-12-20T07:45:15;101452.19;;;10.10;75.20
66524;BME280;53350;52.210;5.160;2023-12-20T07:47:43;101456.50;;;10.07;75.33
66524;BME280;53350;52.210;5.160;2023-12-20T07:50:09;101463.38;;;10.09;75.15
66524;BME280;53350;52.210;5.160;2023-12-20T07:52:36;101466.78;;;10.10;75.26
66524;BME280;53350;52.210;5.160;2023-12-20T07:55:02;101471.94;;;10.13;75.13
66524;BME280;53350;52.210;5.160;2023-12-20T07:57:29;101473.66;;;10.11;75.36
66524;BME280;53350;52.210;5.160;2023-12-20T07:59:56;101473.66;;;10.16;75.17
66524;BME280;53350;52.210;5.160;2023-12-20T08:02:22;101479.66;;;10.18;75.20
66524;BME280;53350;52.210;5.160;2023-12-20T08:04:50;101481.38;;;10.19;75.13
66524;BME280;53350;52.210;5.160;2023-12-20T08:07:16;101482.22;;;10.18;75.23
66524;BME280;53350;52.210;5.160;2023-12-20T08:09:43;101483.09;;;10.17;75.30
66524;BME280;53350;52.210;5.160;2023-12-20T08:12:09;101477.94;;;10.18;75.23
66524;BME280;53350;52.210;5.160;2023-12-20T08:14:36;101484.78;;;10.19;74.97
66524;BME280;53350;52.210;5.160;2023-12-20T08:17:03;101470.22;;;10.23;74.33
66524;BME280;53350;52.210;5.160;2023-12-20T08:19:29;101473.63;;;10.23;74.59
66524;BME280;53350;52.210;5.160;2023-12-20T08:21:57;101472.78;;;10.26;74.56
66524;BME280;53350;52.210;5.160;2023-12-20T08:24:23;101470.22;;;10.23;74.89
66524;BME280;53350;52.210;5.160;2023-12-20T08:26:50;101481.38;;;10.22;74.93
66524;BME280;53350;52.210;5.160;2023-12-20T08:29:16;101467.66;;;10.23;75.01
66524;BME280;53350;52.210;5.160;2023-12-20T08:31:42;101465.91;;;10.22;75.01
66524;BME280;53350;52.210;5.160;2023-12-20T08:34:09;101457.34;;;10.27;74.76
66524;BME280;53350;52.210;5.160;2023-12-20T08:36:37;101463.34;;;10.31;74.58
66524;BME280;53350;52.210;5.160;2023-12-20T08:39:04;101459.94;;;10.34;74.95
66524;BME280;53350;52.210;5.160;2023-12-20T08:41:32;101459.03;;;10.33;74.74
66524;BME280;53350;52.210;5.160;2023-12-20T08:43:59;101463.38;;;10.36;74.91
66524;BME280;53350;52.210;5.160;2023-12-20T08:46:25;101469.38;;;10.39;74.79
66524;BME280;53350;52.210;5.160;2023-12-20T08:48:51;101460.78;;;10.39;74.76
66524;BME280;53350;52.210;5.160;2023-12-20T08:51:18;101465.06;;;10.38;74.58
66524;BME280;53350;52.210;5.160;2023-12-20T08:53:44;101466.78;;;10.36;74.92
66524;BME280;53350;52.210;5.160;2023-12-20T08:56:14;101468.53;;;10.37;75.21
66524;BME280;53350;52.210;5.160;2023-12-20T08:58:40;101469.38;;;10.36;75.26
66524;BME280;53350;52.210;5.160;2023-12-20T09:01:07;101459.94;;;10.34;75.67
66524;BME280;53350;52.210;5.160;2023-12-20T09:03:34;101462.50;;;10.38;75.30
66524;BME280;53350;52.210;5.160;2023-12-20T09:06:00;101455.63;;;10.42;75.38
66524;BME280;53350;52.210;5.160;2023-12-20T09:08:27;101451.31;;;10.46;75.43
66524;BME280;53350;52.210;5.160;2023-12-20T09:10:53;101457.34;;;10.46;75.28
66524;BME280;53350;52.210;5.160;2023-12-20T09:13:21;101469.34;;;10.44;75.70
66524;BME280;53350;52.210;5.160;2023-12-20T09:15:53;101452.19;;;10.43;75.13
66524;BME280;53350;52.210;5.160;2023-12-20T09:18:19;101457.34;;;10.44;75.29
66524;BME280;53350;52.210;5.160;2023-12-20T09:20:46;101452.19;;;10.48;75.15
66524;BME280;53350;52.210;5.160;2023-12-20T09:23:12;101453.03;;;10.48;75.16
66524;BME280;53350;52.210;5.160;2023-12-20T09:25:38;101460.78;;;10.45;75.08
66524;BME280;53350;52.210;5.160;2023-12-20T09:28:05;101451.31;;;10.53;74.49
66524;BME280;53350;52.210;5.160;2023-12-20T09:30:33;101465.94;;;10.54;74.18
66524;BME280;53350;52.210;5.160;2023-12-20T09:33:00;101454.75;;;10.54;74.52
66524;BME280;53350;52.210;5.160;2023-12-20T09:35:27;101455.59;;;10.62;73.72
66524;BME280;53350;52.210;5.160;2023-12-20T09:37:53;101460.72;;;10.65;73.10
66524;BME280;53350;52.210;5.160;2023-12-20T09:40:20;101458.16;;;10.68;73.48
66524;BME280;53350;52.210;5.160;2023-12-20T09:42:51;101469.31;;;10.70;73.74
66524;BME280;53350;52.210;5.160;2023-12-20T09:45:22;101466.72;;;10.67;73.70
66524;BME280;53350;52.210;5.160;2023-12-20T09:47:50;101458.13;;;10.70;73.47
66524;BME280;53350;52.210;5.160;2023-12-20T09:50:18;101461.59;;;10.72;73.81
66524;BME280;53350;52.210;5.160;2023-12-20T09:52:46;101457.25;;;10.78;73.79
66524;BME280;53350;52.210;5.160;2023-12-20T09:55:17;101471.00;;;10.82;73.40
66524;BME280;53350;52.210;5.160;2023-12-20T09:57:43;101467.56;;;10.80;73.27
66524;BME280;53350;52.210;5.160;2023-12-20T10:00:11;101469.28;;;10.79;73.61
66524;BME280;53350;52.210;5.160;2023-12-20T10:02:41;101472.72;;;10.77;73.94
66524;BME280;53350;52.210;5.160;2023-12-20T10:05:16;101481.28;;;10.77;73.87
66524;BME280;53350;52.210;5.160;2023-12-20T10:07:44;101477.84;;;10.82;73.45
66524;BME280;53350;52.210;5.160;2023-12-20T10:10:11;101480.44;;;10.83;73.05
66524;BME280;53350;52.210;5.160;2023-12-20T10:12:38;101482.19;;;10.76;73.43
66524;BME280;53350;52.210;5.160;2023-12-20T10:15:06;101471.84;;;10.79;73.59
66524;BME280;53350;52.210;5.160;2023-12-20T10:17:32;101470.13;;;10.86;73.58
66524;BME280;53350;52.210;5.160;2023-12-20T10:19:59;101470.13;;;10.86;73.45
66524;BME280;53350;52.210;5.160;2023-12-20T10:22:27;101464.09;;;10.87;73.55
66524;BME280;53350;52.210;5.160;2023-12-20T10:24:56;101474.38;;;10.90;73.34
66524;BME280;53350;52.210;5.160;2023-12-20T10:27:22;101463.25;;;10.84;73.42
66524;BME280;53350;52.210;5.160;2023-12-20T10:29:49;101471.00;;;10.85;73.47
66524;BME280;53350;52.210;5.160;2023-12-20T10:32:22;101468.41;;;10.84;73.74
66524;BME280;53350;52.210;5.160;2023-12-20T10:34:49;101466.66;;;10.90;73.47
66524;BME280;53350;52.210;5.160;2023-12-20T10:37:16;101458.06;;;10.94;73.34
66524;BME280;53350;52.210;5.160;2023-12-20T10:39:48;101449.44;;;11.00;73.13
66524;BME280;53350;52.210;5.160;2023-12-20T10:42:16;101464.03;;;11.07;72.67
66524;BME280;53350;52.210;5.160;2023-12-20T10:44:43;101441.66;;;11.08;72.76
66524;BME280;53350;52.210;5.160;2023-12-20T10:47:11;101448.56;;;11.06;72.19
66524;BME280;53350;52.210;5.160;2023-12-20T10:49:40;101453.69;;;11.09;72.16
66524;BME280;53350;52.210;5.160;2023-12-20T10:52:07;101459.72;;;11.03;72.67
66524;BME280;53350;52.210;5.160;2023-12-20T10:54:35;101455.47;;;11.02;72.64
66524;BME280;53350;52.210;5.160;2023-12-20T10:57:05;101447.72;;;11.04;72.44
66524;BME280;53350;52.210;5.160;2023-12-20T10:59:33;101455.44;;;10.99;72.98
66524;BME280;53350;52.210;5.160;2023-12-20T11:01:59;101445.13;;;11.01;72.72
66524;BME280;53350;52.210;5.160;2023-12-20T11:04:36;101433.09;;;11.04;72.48
66524;BME280;53350;52.210;5.160;2023-12-20T11:07:10;101445.97;;;11.07;72.19
66524;BME280;53350;52.210;5.160;2023-12-20T11:09:45;101437.41;;;11.07;72.68
66524;BME280;53350;52.210;5.160;2023-12-20T11:12:19;101439.91;;;11.19;72.06
66524;BME280;53350;52.210;5.160;2023-12-20T11:14:49;101439.88;;;11.21;72.27
66524;BME280;53350;52.210;5.160;2023-12-20T11:17:16;101424.38;;;11.28;71.93
66524;BME280;53350;52.210;5.160;2023-12-20T11:20:04;101425.22;;;11.29;71.77
66524;BME280;53350;52.210;5.160;2023-12-20T11:22:31;101433.81;;;11.33;71.31
66524;BME280;53350;52.210;5.160;2023-12-20T11:24:59;101422.59;;;11.35;70.84
66524;BME280;53350;52.210;5.160;2023-12-20T11:27:30;101405.44;;;11.36;71.16
66524;BME280;53350;52.210;5.160;2023-12-20T11:29:58;101426.91;;;11.38;71.04
66524;BME280;53350;52.210;5.160;2023-12-20T11:32:28;101426.91;;;11.38;71.16
66524;BME280;53350;52.210;5.160;2023-12-20T11:34:56;101415.72;;;11.40;71.06
66524;BME280;53350;52.210;5.160;2023-12-20T11:37:28;101431.22;;;11.37;70.92
66524;BME280;53350;52.210;5.160;2023-12-20T11:39:55;101416.63;;;11.33;70.29
66524;BME280;53350;52.210;5.160;2023-12-20T11:42:21;101411.44;;;11.35;70.81
66524;BME280;53350;52.210;5.160;2023-12-20T11:44:50;101403.69;;;11.36;70.90
66524;BME280;53350;52.210;5.160;2023-12-20T11:47:16;101411.44;;;11.35;70.77
66524;BME280;53350;52.210;5.160;2023-12-20T11:49:44;101393.41;;;11.35;70.98
66524;BME280;53350;52.210;5.160;2023-12-20T11:52:12;101390.81;;;11.35;70.88
66524;BME280;53350;52.210;5.160;2023-12-20T11:54:38;101386.50;;;11.35;71.15
66524;BME280;53350;52.210;5.160;2023-12-20T11:57:05;101382.22;;;11.37;71.20
66524;BME280;53350;52.210;5.160;2023-12-20T11:59:31;101375.28;;;11.41;71.42
66524;BME280;53350;52.210;5.160;2023-12-20T12:01:59;101368.38;;;11.46;71.39
66524;BME280;53350;52.210;5.160;2023-12-20T12:04:26;101384.78;;;11.39;71.60
66524;BME280;53350;52.210;5.160;2023-12-20T12:06:53;101393.41;;;11.31;71.60
66524;BME280;53350;52.210;5.160;2023-12-20T12:09:19;101384.81;;;11.34;71.68
66524;BME280;53350;52.210;5.160;2023-12-20T12:11:46;101402.84;;;11.36;71.30
66524;BME280;53350;52.210;5.160;2023-12-20T12:14:14;101384.81;;;11.29;71.28
66524;BME280;53350;52.210;5.160;2023-12-20T12:16:41;101399.38;;;11.38;70.83
66524;BME280;53350;52.210;5.160;2023-12-20T12:19:19;101390.78;;;11.38;71.43
66524;BME280;53350;52.210;5.160;2023-12-20T12:21:46;101388.16;;;11.42;71.47
66524;BME280;53350;52.210;5.160;2023-12-20T12:24:13;101394.22;;;11.43;71.79
66524;BME280;53350;52.210;5.160;2023-12-20T12:26:39;101371.84;;;11.43;71.65
66524;BME280;53350;52.210;5.160;2023-12-20T12:29:07;101365.88;;;11.40;71.98
66524;BME280;53350;52.210;5.160;2023-12-20T12:31:34;101359.81;;;11.39;72.10
66524;BME280;53350;52.210;5.160;2023-12-20T12:34:01;101346.88;;;11.44;72.07
66524;BME280;53350;52.210;5.160;2023-12-20T12:36:29;101340.06;;;11.41;72.45
66524;BME280;53350;52.210;5.160;2023-12-20T12:38:56;101339.25;;;11.31;72.23
66524;BME280;53350;52.210;5.160;2023-12-20T12:41:23;101359.81;;;11.41;72.49
66524;BME280;53350;52.210;5.160;2023-12-20T12:43:50;101358.13;;;11.40;72.84
66524;BME280;53350;52.210;5.160;2023-12-20T12:46:16;101362.34;;;11.45;72.49
66524;BME280;53350;52.210;5.160;2023-12-20T12:48:43;101349.47;;;11.44;72.55
66524;BME280;53350;52.210;5.160;2023-12-20T12:51:10;101344.28;;;11.47;72.20
66524;BME280;53350;52.210;5.160;2023-12-20T12:53:40;101344.28;;;11.47;72.28